Time;durP1;ratioP1;P1;durP2;ratioP2;P2;SDS_P1;SDS_P2;PMS_P1;PMS_P2;Temp;Humidity;BMP_temperature;BMP_pressure;BME280_temperature;BME280_humidity;BME280_pressure;Samples;Min_cycle;Max_cycle;Signal;HPM_P1;HPM_P2
2021/10/03 00:00:39;;;;;;;15.33;12.57;;;17.40;99.90;;;;;;5018857;28;20550;-65
2021/10/03 00:03:11;;;;;;;14.40;11.97;;;17.30;99.90;;;;;;5022677;28;20503;-65
2021/10/03 00:05:38;;;;;;;13.87;12.57;;;17.40;99.90;;;;;;5025753;28;20483;-65
2021/10/03 00:08:07;;;;;;;13.63;12.33;;;17.40;99.90;;;;;;5023797;28;20473;-65
2021/10/03 00:10:35;;;;;;;14.60;13.20;;;17.40;99.90;;;;;;5018412;28;20476;-65
2021/10/03 00:13:04;;;;;;;14.37;12.87;;;17.40;99.90;;;;;;5027624;28;20464;-65
2021/10/03 00:15:31;;;;;;;14.40;12.90;;;17.40;99.90;;;;;;5018712;28;20483;-65
2021/10/03 00:18:00;;;;;;;20.70;12.87;;;17.40;99.90;;;;;;5019972;28;20547;-65
2021/10/03 00:20:28;;;;;;;15.20;13.60;;;17.40;99.90;;;;;;5025226;28;20632;-65
2021/10/03 00:22:54;;;;;;;15.57;13.97;;;17.40;99.90;;;;;;5025515;28;20805;-65
2021/10/03 00:25:25;;;;;;;14.80;13.30;;;17.30;99.90;;;;;;5018273;28;20471;-65
2021/10/03 00:27:53;;;;;;;13.90;12.70;;;17.40;99.90;;;;;;5018860;28;20469;-65
2021/10/03 00:30:21;;;;;;;15.50;13.03;;;17.30;99.90;;;;;;5025166;28;20477;-65
2021/10/03 00:32:47;;;;;;;16.57;14.87;;;17.30;99.90;;;;;;5025334;28;20464;-65
2021/10/03 00:35:16;;;;;;;14.57;13.07;;;17.30;99.90;;;;;;5019785;28;20822;-65
2021/10/03 00:37:44;;;;;;;15.33;13.90;;;17.30;99.90;;;;;;5018454;28;20499;-65
2021/10/03 00:40:12;;;;;;;14.57;13.17;;;17.20;99.90;;;;;;5024325;28;20477;-65
2021/10/03 00:42:40;;;;;;;16.47;14.97;;;17.30;99.90;;;;;;5025236;28;20464;-65
2021/10/03 00:45:09;;;;;;;14.67;13.27;;;17.30;99.90;;;;;;5026653;28;20470;-65
2021/10/03 00:47:36;;;;;;;15.90;14.30;;;17.30;99.90;;;;;;5036018;28;20478;-65
2021/10/03 00:50:03;;;;;;;14.77;13.30;;;17.30;99.90;;;;;;5040854;28;20463;-65
2021/10/03 00:52:32;;;;;;;16.83;14.57;;;17.30;99.90;;;;;;5053031;28;20474;-65
2021/10/03 00:54:59;;;;;;;14.83;13.33;;;17.30;99.90;;;;;;5044693;28;20481;-65
2021/10/03 00:57:26;;;;;;;16.00;14.40;;;17.30;99.90;;;;;;5041725;28;20472;-65
2021/10/03 00:59:53;;;;;;;14.40;12.90;;;17.40;99.90;;;;;;5046390;28;20486;-65
2021/10/03 01:02:20;;;;;;;13.83;12.47;;;17.30;99.90;;;;;;5048721;28;21061;-65
2021/10/03 01:04:47;;;;;;;15.97;14.07;;;17.30;99.90;;;;;;5044661;28;20463;-65
2021/10/03 01:07:14;;;;;;;20.13;14.43;;;17.30;99.90;;;;;;5042091;28;20471;-65
2021/10/03 01:09:42;;;;;;;14.80;13.23;;;17.30;99.90;;;;;;5045192;28;20983;-65
2021/10/03 01:12:12;;;;;;;15.10;13.57;;;17.20;99.90;;;;;;5048663;28;20811;-65
2021/10/03 01:14:39;;;;;;;15.30;13.80;;;17.20;99.90;;;;;;5045580;28;20502;-65
2021/10/03 01:17:06;;;;;;;15.57;12.60;;;17.20;99.90;;;;;;5041818;28;20930;-65
2021/10/03 01:19:37;;;;;;;15.80;14.10;;;17.30;99.90;;;;;;5043779;28;20471;-65
2021/10/03 01:22:05;;;;;;;14.70;13.13;;;17.20;99.90;;;;;;5048519;28;20464;-65
2021/10/03 01:24:33;;;;;;;15.67;12.17;;;17.20;99.90;;;;;;5040234;28;20787;-65
2021/10/03 01:27:01;;;;;;;14.37;12.97;;;17.30;99.90;;;;;;5055062;28;20953;-66
2021/10/03 01:29:28;;;;;;;14.03;12.63;;;17.30;99.90;;;;;;5040949;28;20566;-65
2021/10/03 01:31:55;;;;;;;14.57;12.70;;;17.30;99.90;;;;;;5042291;28;20464;-65
2021/10/03 01:34:23;;;;;;;14.63;13.07;;;17.20;99.90;;;;;;5047929;28;20468;-65
2021/10/03 01:36:50;;;;;;;14.17;12.87;;;17.20;99.90;;;;;;5047907;28;20481;-65
2021/10/03 01:39:18;;;;;;;14.67;13.23;;;17.20;99.80;;;;;;5041512;28;20471;-65
2021/10/03 01:41:46;;;;;;;13.30;12.03;;;17.20;99.90;;;;;;5040810;28;20814;-65
2021/10/03 01:44:13;;;;;;;12.87;11.73;;;17.20;99.60;;;;;;5051125;28;20462;-65
2021/10/03 01:46:40;;;;;;;12.87;11.67;;;17.20;99.60;;;;;;5053329;28;20479;-64
2021/10/03 01:49:07;;;;;;;15.30;13.53;;;17.10;99.50;;;;;;5042048;28;20475;-65
2021/10/03 01:51:34;;;;;;;16.67;14.07;;;17.20;99.60;;;;;;5048513;28;20467;-65
2021/10/03 01:54:01;;;;;;;13.20;12.00;;;17.10;99.50;;;;;;5042129;28;20467;-65
2021/10/03 01:56:32;;;;;;;13.03;11.80;;;17.10;99.40;;;;;;5041117;28;20822;-65
2021/10/03 01:59:01;;;;;;;13.40;11.40;;;17.10;99.30;;;;;;5046174;28;20463;-65
2021/10/03 02:01:30;;;;;;;13.50;12.07;;;17.10;99.40;;;;;;5046803;28;20475;-65
2021/10/03 02:03:57;;;;;;;13.43;11.97;;;17.10;99.30;;;;;;5042760;28;20463;-64
2021/10/03 02:06:25;;;;;;;12.30;11.00;;;17.20;99.30;;;;;;5040879;28;20469;-65
2021/10/03 02:08:53;;;;;;;12.30;10.90;;;17.20;99.20;;;;;;5044195;28;20809;-65
2021/10/03 02:11:20;;;;;;;12.57;11.43;;;17.20;99.10;;;;;;5047662;28;20472;-65
2021/10/03 02:13:49;;;;;;;13.43;11.90;;;17.20;98.90;;;;;;5036772;28;20958;-65
2021/10/03 02:16:15;;;;;;;13.60;12.20;;;17.20;98.80;;;;;;5047361;28;20498;-65
2021/10/03 02:18:45;;;;;;;15.07;13.40;;;17.20;98.80;;;;;;5044963;28;20505;-65
2021/10/03 02:21:12;;;;;;;13.03;11.73;;;17.10;98.90;;;;;;5039840;28;20502;-65
2021/10/03 02:23:40;;;;;;;13.10;12.00;;;17.10;98.80;;;;;;5042724;28;20474;-65
2021/10/03 02:26:08;;;;;;;12.50;11.37;;;17.10;98.70;;;;;;5047720;28;20479;-65
2021/10/03 02:28:35;;;;;;;13.20;12.07;;;17.10;98.80;;;;;;5053975;28;20531;-65
2021/10/03 02:31:08;;;;;;;12.53;11.33;;;17.10;98.80;;;;;;5040448;28;20798;-65
2021/10/03 02:33:35;;;;;;;11.87;10.77;;;17.10;98.70;;;;;;5040542;28;20460;-65
2021/10/03 02:36:03;;;;;;;12.00;10.83;;;17.10;98.70;;;;;;5047092;28;20476;-65
2021/10/03 02:38:30;;;;;;;13.07;11.77;;;17.00;98.60;;;;;;5046421;28;20494;-65
2021/10/03 02:41:00;;;;;;;12.20;11.20;;;16.90;98.60;;;;;;5040512;28;20471;-65
2021/10/03 02:43:34;;;;;;;12.83;11.53;;;16.90;98.70;;;;;;5039818;28;20518;-65
2021/10/03 02:46:03;;;;;;;12.87;11.60;;;16.90;98.70;;;;;;5043334;28;20470;-65
2021/10/03 02:48:32;;;;;;;11.47;10.37;;;16.90;98.60;;;;;;5039598;28;20559;-65
2021/10/03 02:50:59;;;;;;;11.60;10.57;;;16.90;98.60;;;;;;5048383;28;20463;-65
2021/10/03 02:53:27;;;;;;;12.07;11.07;;;16.90;98.60;;;;;;5039499;28;20464;-65
2021/10/03 02:55:54;;;;;;;11.77;10.57;;;16.90;98.50;;;;;;5043926;28;20490;-65
2021/10/03 02:58:21;;;;;;;12.13;10.97;;;17.00;98.50;;;;;;5046186;28;20472;-65
2021/10/03 03:00:53;;;;;;;11.27;10.20;;;17.00;98.40;;;;;;5037869;28;20472;-64
2021/10/03 03:03:22;;;;;;;12.17;10.27;;;17.00;98.30;;;;;;5045913;28;20469;-65
2021/10/03 03:05:49;;;;;;;10.47;9.37;;;17.00;98.20;;;;;;5039888;28;20478;-65
2021/10/03 03:08:16;;;;;;;12.73;9.97;;;17.00;98.10;;;;;;5039290;28;20480;-65
2021/10/03 03:10:43;;;;;;;13.43;10.43;;;16.90;98.10;;;;;;5039748;28;20464;-65
2021/10/03 03:13:11;;;;;;;11.90;10.83;;;16.90;98.00;;;;;;5046704;28;20463;-65
2021/10/03 03:15:38;;;;;;;11.17;9.93;;;16.90;98.00;;;;;;5040131;28;21251;-65
2021/10/03 03:18:05;;;;;;;11.63;10.50;;;16.90;98.00;;;;;;5039435;28;20551;-65
2021/10/03 03:20:34;;;;;;;10.47;9.47;;;16.90;98.10;;;;;;5045326;28;20796;-65
2021/10/03 03:23:00;;;;;;;10.93;10.07;;;16.90;98.10;;;;;;5046018;28;20471;-65
2021/10/03 03:25:28;;;;;;;12.23;11.20;;;16.90;98.10;;;;;;5040292;28;20463;-65
2021/10/03 03:27:58;;;;;;;11.67;10.47;;;16.80;98.00;;;;;;5051451;28;20465;-65
2021/10/03 03:30:24;;;;;;;12.90;11.80;;;16.90;98.00;;;;;;5040839;28;20471;-65
2021/10/03 03:32:51;;;;;;;12.57;11.27;;;16.80;98.00;;;;;;5039535;28;20494;-65
2021/10/03 03:35:18;;;;;;;11.33;10.13;;;16.90;98.10;;;;;;5043676;28;20482;-65
2021/10/03 03:37:46;;;;;;;12.37;11.20;;;16.80;98.00;;;;;;5046117;28;20967;-65
2021/10/03 03:40:14;;;;;;;10.80;9.70;;;16.80;97.90;;;;;;5041379;28;20475;-65
2021/10/03 03:42:41;;;;;;;11.43;9.90;;;16.80;97.90;;;;;;5038803;28;20456;-65
2021/10/03 03:45:10;;;;;;;11.00;10.07;;;16.80;97.90;;;;;;5041493;28;20499;-65
2021/10/03 03:47:37;;;;;;;13.17;11.90;;;16.90;97.90;;;;;;5050175;28;20789;-65
2021/10/03 03:50:05;;;;;;;10.80;9.80;;;16.90;97.80;;;;;;5051014;28;20828;-65
2021/10/03 03:52:31;;;;;;;10.93;9.93;;;16.90;97.80;;;;;;5050837;28;20478;-65
2021/10/03 03:55:00;;;;;;;9.80;8.93;;;16.90;97.80;;;;;;5052675;28;20474;-65
2021/10/03 03:57:26;;;;;;;11.47;10.27;;;16.90;97.80;;;;;;5052284;28;20813;-65
2021/10/03 03:59:53;;;;;;;13.00;11.60;;;16.90;97.70;;;;;;5052512;28;20478;-65
2021/10/03 04:02:20;;;;;;;13.10;11.27;;;16.90;97.70;;;;;;5052158;28;20460;-65
2021/10/03 04:04:47;;;;;;;11.60;10.40;;;16.90;97.60;;;;;;5052660;28;20801;-64
2021/10/03 04:07:14;;;;;;;12.13;10.00;;;17.00;97.60;;;;;;5052563;28;20469;-65
2021/10/03 04:09:41;;;;;;;11.00;9.90;;;17.00;97.60;;;;;;5052024;28;20470;-65
2021/10/03 04:12:09;;;;;;;12.07;10.97;;;16.90;97.50;;;;;;5052329;28;20467;-65
2021/10/03 04:14:38;;;;;;;10.63;9.67;;;16.90;97.50;;;;;;5052038;28;20471;-65
2021/10/03 04:17:05;;;;;;;11.83;10.83;;;16.90;97.50;;;;;;5052445;28;20524;-65
2021/10/03 04:19:32;;;;;;;12.00;11.00;;;16.90;97.50;;;;;;5051907;28;20489;-65
2021/10/03 04:21:59;;;;;;;11.17;10.03;;;16.90;97.50;;;;;;5052356;28;20922;-66
2021/10/03 04:24:26;;;;;;;12.80;10.87;;;16.80;97.50;;;;;;5052650;28;20473;-65
2021/10/03 04:26:53;;;;;;;11.70;10.60;;;16.80;97.50;;;;;;5056429;28;20463;-65
2021/10/03 04:29:21;;;;;;;10.93;9.83;;;16.80;97.50;;;;;;5055795;28;20825;-65
2021/10/03 04:31:48;;;;;;;10.97;9.87;;;16.80;97.50;;;;;;5056331;28;20463;-65
2021/10/03 04:34:15;;;;;;;11.20;10.20;;;16.80;97.50;;;;;;5056096;28;20471;-65
2021/10/03 04:36:42;;;;;;;12.07;10.87;;;16.80;97.50;;;;;;5055475;28;20473;-65
2021/10/03 04:39:08;;;;;;;10.50;9.70;;;16.80;97.60;;;;;;5056128;28;20481;-65
2021/10/03 04:41:35;;;;;;;12.83;11.67;;;16.80;97.50;;;;;;5055678;28;20786;-66
2021/10/03 04:44:02;;;;;;;13.07;11.67;;;16.90;97.70;;;;;;5056036;28;20462;-66
2021/10/03 04:46:31;;;;;;;11.80;10.70;;;16.80;97.50;;;;;;5055222;28;20482;-65
2021/10/03 04:48:57;;;;;;;11.20;10.30;;;16.80;97.40;;;;;;5055891;28;20467;-65
2021/10/03 04:51:24;;;;;;;11.47;10.47;;;16.80;97.50;;;;;;5055594;28;20987;-65
2021/10/03 04:53:51;;;;;;;14.37;10.17;;;16.80;97.50;;;;;;5055510;28;20481;-66
2021/10/03 04:56:18;;;;;;;12.33;10.50;;;16.80;97.50;;;;;;5055714;28;20471;-65
2021/10/03 04:58:45;;;;;;;11.40;10.33;;;16.80;97.50;;;;;;5055315;28;20471;-65
2021/10/03 05:01:14;;;;;;;12.70;11.50;;;16.80;97.60;;;;;;5055728;28;20926;-65
2021/10/03 05:03:42;;;;;;;11.23;10.10;;;16.80;97.60;;;;;;5055177;28;20834;-65
2021/10/03 05:06:10;;;;;;;12.07;10.97;;;16.80;97.60;;;;;;5055829;28;20477;-65
2021/10/03 05:08:37;;;;;;;10.27;9.30;;;16.80;97.50;;;;;;5054964;28;20470;-64
2021/10/03 05:11:04;;;;;;;16.23;11.40;;;16.80;97.60;;;;;;5055491;28;20512;-65
2021/10/03 05:13:32;;;;;;;12.07;10.90;;;16.80;97.50;;;;;;5055100;28;20469;-65
2021/10/03 05:15:59;;;;;;;12.23;10.87;;;16.80;97.50;;;;;;5055322;28;20463;-65
2021/10/03 05:18:26;;;;;;;11.23;10.13;;;16.80;97.50;;;;;;5054923;28;20977;-65
2021/10/03 05:20:55;;;;;;;10.77;9.87;;;16.90;97.50;;;;;;5055362;28;20469;-65
2021/10/03 05:23:22;;;;;;;12.93;11.63;;;16.90;97.50;;;;;;5055026;28;20471;-65
2021/10/03 05:25:52;;;;;;;15.00;11.20;;;16.80;97.40;;;;;;5055068;28;21608;-65
2021/10/03 05:28:19;;;;;;;12.57;11.30;;;16.90;97.50;;;;;;5055055;28;20536;-66
2021/10/03 05:30:45;;;;;;;12.70;11.43;;;16.90;97.50;;;;;;5054741;28;20465;-65
2021/10/03 05:33:12;;;;;;;12.30;11.00;;;16.90;97.50;;;;;;5055021;28;20459;-64
2021/10/03 05:35:39;;;;;;;12.23;11.23;;;16.90;97.40;;;;;;5054486;28;20471;-65
2021/10/03 05:38:07;;;;;;;11.73;10.67;;;16.90;97.50;;;;;;5054602;28;20954;-65
2021/10/03 05:40:34;;;;;;;12.53;11.17;;;17.00;97.50;;;;;;5054327;28;20472;-65
2021/10/03 05:43:02;;;;;;;12.23;11.13;;;17.00;97.50;;;;;;5055137;28;20459;-65
2021/10/03 05:45:29;;;;;;;11.77;10.70;;;17.00;97.50;;;;;;5054456;28;20786;-65
2021/10/03 05:47:56;;;;;;;12.50;11.20;;;17.00;97.50;;;;;;5054731;28;20978;-65
2021/10/03 05:50:23;;;;;;;12.33;11.00;;;17.00;97.50;;;;;;5054844;28;20778;-65
2021/10/03 05:52:50;;;;;;;13.40;11.37;;;17.10;97.50;;;;;;5054288;28;20952;-65
2021/10/03 05:55:18;;;;;;;13.10;12.10;;;17.00;97.50;;;;;;5054536;28;20467;-65
2021/10/03 05:57:45;;;;;;;12.60;11.50;;;17.10;97.50;;;;;;5054094;28;20460;-65
2021/10/03 06:00:13;;;;;;;14.03;12.73;;;17.00;97.50;;;;;;5054676;28;20801;-65
2021/10/03 06:02:40;;;;;;;16.03;12.50;;;17.00;97.50;;;;;;5054246;28;20467;-65
2021/10/03 06:05:07;;;;;;;12.43;11.17;;;17.00;97.60;;;;;;5054572;28;20808;-65
2021/10/03 06:07:34;;;;;;;11.57;10.50;;;17.00;97.60;;;;;;5054054;28;20467;-65
2021/10/03 06:10:00;;;;;;;13.73;12.40;;;17.00;97.60;;;;;;5054527;28;20802;-65
2021/10/03 06:12:28;;;;;;;11.60;10.50;;;17.00;97.60;;;;;;5054334;28;20469;-65
2021/10/03 06:14:55;;;;;;;17.10;13.80;;;17.00;97.70;;;;;;5054170;28;20460;-65
2021/10/03 06:17:22;;;;;;;11.87;10.83;;;17.10;97.70;;;;;;5054390;28;20805;-65
2021/10/03 06:19:51;;;;;;;13.40;12.00;;;17.10;97.70;;;;;;5053602;28;20471;-65
2021/10/03 06:22:22;;;;;;;12.10;11.00;;;17.10;97.70;;;;;;5054239;28;20475;-65
2021/10/03 06:24:49;;;;;;;12.23;11.23;;;17.10;97.70;;;;;;5053751;28;20468;-65
2021/10/03 06:27:15;;;;;;;14.63;12.23;;;17.00;97.70;;;;;;5054103;28;20474;-65
2021/10/03 06:29:44;;;;;;;12.60;11.33;;;17.10;97.70;;;;;;5053560;28;20471;-65
2021/10/03 06:32:11;;;;;;;13.30;12.20;;;17.10;97.70;;;;;;5054127;28;20467;-65
2021/10/03 06:34:38;;;;;;;11.87;10.70;;;17.10;97.70;;;;;;5053442;28;20463;-65
2021/10/03 06:37:05;;;;;;;16.40;11.33;;;17.10;97.70;;;;;;5053774;28;20459;-65
2021/10/03 06:39:32;;;;;;;12.17;10.90;;;17.00;97.80;;;;;;5053767;28;20477;-65
2021/10/03 06:41:59;;;;;;;15.40;13.23;;;17.10;97.90;;;;;;5053468;28;21245;-65
2021/10/03 06:44:25;;;;;;;13.00;11.70;;;17.10;97.90;;;;;;5053869;28;20546;-64
2021/10/03 06:46:53;;;;;;;12.03;10.83;;;17.10;97.90;;;;;;5053150;28;20475;-65
2021/10/03 06:49:20;;;;;;;10.80;9.80;;;17.20;97.90;;;;;;5052654;28;20486;-66
2021/10/03 06:51:47;;;;;;;13.57;11.90;;;17.20;97.90;;;;;;5053349;28;20471;-65
2021/10/03 06:54:14;;;;;;;13.23;11.97;;;17.30;97.90;;;;;;5053480;28;20812;-66
2021/10/03 06:56:41;;;;;;;12.43;11.37;;;17.30;97.90;;;;;;5052882;28;20469;-65
2021/10/03 06:59:08;;;;;;;12.87;11.57;;;17.30;97.70;;;;;;5053520;28;20481;-65
2021/10/03 07:01:35;;;;;;;15.17;12.13;;;17.30;97.80;;;;;;5053346;28;20475;-65
2021/10/03 07:04:03;;;;;;;13.40;12.10;;;17.30;97.90;;;;;;5053207;28;20473;-65
2021/10/03 07:06:30;;;;;;;19.90;12.53;;;17.30;98.00;;;;;;5053319;28;20463;-65
2021/10/03 07:08:56;;;;;;;14.40;11.70;;;17.30;98.40;;;;;;5052811;28;20464;-65
2021/10/03 07:11:23;;;;;;;13.20;12.03;;;17.30;98.90;;;;;;5053268;28;20471;-66
2021/10/03 07:13:50;;;;;;;13.60;12.27;;;17.30;98.60;;;;;;5052873;28;20463;-66
2021/10/03 07:16:17;;;;;;;13.00;11.67;;;17.30;99.00;;;;;;5053106;28;20475;-66
2021/10/03 07:18:45;;;;;;;13.90;12.70;;;17.30;99.00;;;;;;5052641;28;20471;-66
2021/10/03 07:21:13;;;;;;;11.57;10.57;;;17.20;99.10;;;;;;5053222;28;20463;-66
2021/10/03 07:23:40;;;;;;;14.13;12.70;;;17.30;99.00;;;;;;5052651;28;20554;-66
2021/10/03 07:26:07;;;;;;;13.23;11.83;;;17.20;99.00;;;;;;5053013;28;20467;-66
2021/10/03 07:28:34;;;;;;;13.60;12.37;;;17.30;98.90;;;;;;5052984;28;20969;-66
2021/10/03 07:31:01;;;;;;;14.63;13.23;;;17.20;98.80;;;;;;5052538;28;20463;-66
2021/10/03 07:33:28;;;;;;;15.93;12.10;;;17.20;98.90;;;;;;5053079;28;20979;-66
2021/10/03 07:35:55;;;;;;;14.00;12.57;;;17.20;98.90;;;;;;5052368;28;20504;-66
2021/10/03 07:38:23;;;;;;;13.10;12.00;;;17.30;98.90;;;;;;5052731;28;20991;-66
2021/10/03 07:40:50;;;;;;;12.40;11.13;;;17.30;98.90;;;;;;5052438;28;20471;-66
2021/10/03 07:43:17;;;;;;;12.47;11.40;;;17.40;98.80;;;;;;5052782;28;20481;-66
2021/10/03 07:45:44;;;;;;;14.63;13.13;;;17.40;98.60;;;;;;5052421;28;20470;-66
2021/10/03 07:48:11;;;;;;;13.90;12.10;;;17.50;98.50;;;;;;5052555;28;20463;-66
2021/10/03 07:50:38;;;;;;;12.57;11.47;;;17.50;98.50;;;;;;5052821;28;20459;-66
2021/10/03 07:53:05;;;;;;;12.47;11.20;;;17.50;98.40;;;;;;5052482;28;21238;-66
2021/10/03 07:55:33;;;;;;;14.90;13.13;;;17.50;98.50;;;;;;5052701;28;20550;-66
2021/10/03 07:58:03;;;;;;;13.37;12.10;;;17.50;98.50;;;;;;5052028;28;20468;-66
2021/10/03 08:00:30;;;;;;;14.73;13.23;;;17.50;98.40;;;;;;5052362;28;20790;-66
2021/10/03 08:02:57;;;;;;;13.80;12.37;;;17.60;98.70;;;;;;5052332;28;20474;-66
2021/10/03 08:05:24;;;;;;;13.60;12.20;;;17.60;98.20;;;;;;5052542;28;20958;-66
2021/10/03 08:07:51;;;;;;;13.30;12.20;;;17.60;98.30;;;;;;5052104;28;20460;-66
2021/10/03 08:10:18;;;;;;;11.93;10.83;;;17.70;98.30;;;;;;5052440;28;20475;-66
2021/10/03 08:12:47;;;;;;;13.37;12.10;;;17.70;98.30;;;;;;5052166;28;20464;-66
2021/10/03 08:15:15;;;;;;;13.23;12.10;;;17.70;98.10;;;;;;5052484;28;20471;-66
2021/10/03 08:17:42;;;;;;;14.90;12.60;;;17.70;98.10;;;;;;5052017;28;20474;-66
2021/10/03 08:20:09;;;;;;;13.30;12.20;;;17.70;98.30;;;;;;5052317;28;20783;-66
2021/10/03 08:22:36;;;;;;;12.67;11.57;;;17.80;98.30;;;;;;5052295;28;20543;-66
2021/10/03 08:25:05;;;;;;;13.00;11.90;;;17.80;98.30;;;;;;5052016;28;20938;-66
2021/10/03 08:27:33;;;;;;;12.30;11.10;;;17.90;98.20;;;;;;5052402;28;20493;-66
2021/10/03 08:30:02;;;;;;;12.97;11.47;;;17.90;98.20;;;;;;5051801;28;20471;-66
2021/10/03 08:32:29;;;;;;;13.00;11.63;;;17.90;98.10;;;;;;5052436;28;20471;-66
2021/10/03 08:34:56;;;;;;;13.37;12.07;;;17.90;97.80;;;;;;5051824;28;20463;-66
2021/10/03 08:37:22;;;;;;;12.13;11.03;;;17.90;97.90;;;;;;5052197;28;20463;-66
2021/10/03 08:39:50;;;;;;;13.10;11.70;;;17.90;98.00;;;;;;5051766;28;20481;-66
2021/10/03 08:42:17;;;;;;;10.90;9.90;;;17.90;98.00;;;;;;5052247;28;20463;-66
2021/10/03 08:44:44;;;;;;;12.80;11.63;;;18.00;98.10;;;;;;5051826;28;20469;-66
2021/10/03 08:47:12;;;;;;;13.00;11.70;;;18.00;98.00;;;;;;5052026;28;20467;-66
2021/10/03 08:49:39;;;;;;;13.47;12.13;;;18.10;97.90;;;;;;5052032;28;20478;-66
2021/10/03 08:52:07;;;;;;;11.90;10.90;;;18.10;97.80;;;;;;5051713;28;20474;-66
2021/10/03 08:54:36;;;;;;;11.50;10.40;;;18.20;97.90;;;;;;5052031;28;20460;-66
2021/10/03 08:57:04;;;;;;;12.73;11.53;;;18.30;97.90;;;;;;5051759;28;20482;-66
2021/10/03 08:59:31;;;;;;;12.90;11.80;;;18.30;97.80;;;;;;5052066;28;20482;-66
2021/10/03 09:01:59;;;;;;;12.30;11.20;;;18.30;97.90;;;;;;5051563;28;20469;-66
2021/10/03 09:04:31;;;;;;;12.60;11.37;;;18.40;97.90;;;;;;5051915;28;20477;-66
2021/10/03 09:07:09;;;;;;;13.60;11.43;;;18.40;97.70;;;;;;5051700;28;20463;-66
2021/10/03 09:09:56;;;;;;;12.87;11.77;;;18.40;97.60;;;;;;5051918;28;20469;-66
2021/10/03 09:12:29;;;;;;;14.80;12.20;;;18.50;97.60;;;;;;5054564;28;20471;-66
2021/10/03 09:14:56;;;;;;;11.27;10.37;;;18.50;97.60;;;;;;5055170;28;20447;-66
2021/10/03 09:17:25;;;;;;;12.17;10.87;;;18.50;97.60;;;;;;5055319;28;20459;-66
2021/10/03 09:20:11;;;;;;;12.03;10.93;;;18.60;97.70;;;;;;5054943;28;20468;-66
2021/10/03 09:23:06;;;;;;;13.30;12.03;;;18.60;97.80;;;;;;5055088;28;20477;-66
2021/10/03 09:25:45;;;;;;;11.23;10.23;;;18.60;97.80;;;;;;5054591;28;20477;-66
2021/10/03 09:28:16;;;;;;;12.67;10.43;;;18.70;97.80;;;;;;5055298;28;20492;-66
2021/10/03 09:30:54;;;;;;;10.80;9.83;;;18.70;97.70;;;;;;5054869;28;20812;-66
2021/10/03 09:33:21;;;;;;;11.77;10.67;;;18.70;97.70;;;;;;5054988;28;20463;-65
2021/10/03 09:35:58;;;;;;;13.20;11.73;;;18.70;97.70;;;;;;5054652;28;20463;-66
2021/10/03 09:38:26;;;;;;;11.17;10.03;;;18.80;97.50;;;;;;5054918;28;20474;-65
2021/10/03 09:41:01;;;;;;;13.03;11.93;;;18.80;97.50;;;;;;5054588;28;20462;-66
2021/10/03 09:43:39;;;;;;;12.17;11.03;;;18.80;97.70;;;;;;5054849;28;20470;-65
2021/10/03 09:46:06;;;;;;;12.90;11.20;;;18.80;97.70;;;;;;5054624;28;20478;-65
2021/10/03 09:48:47;;;;;;;11.07;10.17;;;18.90;97.70;;;;;;5054861;28;20481;-66
2021/10/03 09:51:16;;;;;;;11.27;10.27;;;18.90;97.70;;;;;;5054522;28;20467;-65
2021/10/03 09:53:44;;;;;;;12.60;11.40;;;19.00;97.80;;;;;;5054678;28;20475;-65
2021/10/03 09:56:12;;;;;;;11.73;10.63;;;19.00;97.60;;;;;;5054248;28;20458;-65
2021/10/03 09:58:40;;;;;;;11.67;10.57;;;19.10;97.70;;;;;;5054695;28;20541;-65
2021/10/03 10:01:07;;;;;;;12.43;11.23;;;19.20;97.70;;;;;;5054129;28;20808;-65
2021/10/03 10:03:36;;;;;;;11.67;10.70;;;19.30;97.70;;;;;;5054525;28;20471;-66
2021/10/03 10:06:03;;;;;;;10.07;9.20;;;19.30;97.60;;;;;;5054196;28;20489;-65
2021/10/03 10:08:32;;;;;;;11.40;10.40;;;19.40;97.50;;;;;;5054413;28;20485;-66
2021/10/03 10:11:05;;;;;;;11.50;10.50;;;19.50;97.50;;;;;;5053940;28;20866;-66
2021/10/03 10:13:34;;;;;;;12.07;10.80;;;19.60;97.50;;;;;;5054511;28;20469;-66
2021/10/03 10:16:32;;;;;;;11.97;10.10;;;19.70;97.40;;;;;;5053942;28;20467;-66
2021/10/03 10:19:33;;;;;;;11.07;10.10;;;19.70;97.10;;;;;;5053800;28;20471;-66
2021/10/03 10:22:36;;;;;;;10.70;9.70;;;19.80;97.10;;;;;;5053753;28;20490;-65
2021/10/03 10:25:22;;;;;;;9.50;8.80;;;19.80;97.10;;;;;;5053683;28;20475;-65
2021/10/03 10:28:10;;;;;;;9.60;8.80;;;19.90;97.10;;;;;;5054189;28;20516;-66
2021/10/03 10:30:53;;;;;;;10.97;9.97;;;20.00;97.10;;;;;;5053994;28;20551;-65
2021/10/03 10:33:21;;;;;;;10.30;9.27;;;20.10;97.10;;;;;;5045274;28;20467;-66
2021/10/03 10:35:50;;;;;;;10.27;9.37;;;20.10;97.00;;;;;;5053591;28;20498;-66
2021/10/03 10:38:20;;;;;;;10.47;9.47;;;20.20;97.00;;;;;;5053670;28;20583;-66
2021/10/03 10:40:51;;;;;;;11.70;10.50;;;20.20;96.80;;;;;;5053310;28;20471;-66
2021/10/03 10:43:42;;;;;;;10.73;9.70;;;20.30;97.00;;;;;;5054004;28;20467;-66
2021/10/03 10:46:09;;;;;;;10.50;9.60;;;20.30;96.70;;;;;;5053867;28;20464;-65
2021/10/03 10:48:36;;;;;;;9.83;8.97;;;20.40;96.90;;;;;;5053309;28;20473;-65
2021/10/03 10:51:19;;;;;;;9.90;9.00;;;20.40;96.60;;;;;;5053670;28;20467;-65
2021/10/03 10:53:46;;;;;;;10.20;9.20;;;20.40;96.30;;;;;;5053302;28;20474;-65
2021/10/03 10:56:16;;;;;;;10.90;10.07;;;20.50;96.10;;;;;;5053604;28;20470;-66
2021/10/03 10:59:04;;;;;;;10.40;9.60;;;20.60;96.00;;;;;;5053010;28;20937;-66
2021/10/03 11:01:40;;;;;;;9.33;8.63;;;20.60;96.30;;;;;;5053070;28;20471;-65
2021/10/03 11:04:24;;;;;;;11.27;10.30;;;20.80;95.80;;;;;;5053438;28;20912;-66
2021/10/03 11:06:57;;;;;;;9.13;8.43;;;20.90;95.80;;;;;;5053075;28;20525;-65
2021/10/03 11:09:24;;;;;;;9.70;8.87;;;20.90;95.70;;;;;;5053077;28;20469;-66
2021/10/03 11:12:02;;;;;;;10.13;9.10;;;21.00;95.50;;;;;;5033046;28;20531;-65
2021/10/03 11:14:29;;;;;;;8.10;7.30;;;21.10;95.30;;;;;;5032977;28;20456;-66
2021/10/03 11:17:00;;;;;;;9.30;8.60;;;21.30;95.20;;;;;;5033128;28;20456;-66
2021/10/03 11:19:35;;;;;;;9.53;8.73;;;21.40;95.20;;;;;;5032815;28;20460;-66
2021/10/03 11:22:05;;;;;;;9.07;8.17;;;21.50;95.30;;;;;;5033380;28;20465;-66
2021/10/03 11:24:34;;;;;;;8.60;7.90;;;21.50;95.20;;;;;;5032660;28;20479;-66
2021/10/03 11:27:05;;;;;;;8.57;7.87;;;21.60;94.90;;;;;;5033190;28;20468;-65
2021/10/03 11:29:33;;;;;;;9.03;8.23;;;21.70;94.90;;;;;;5032744;28;20868;-66
2021/10/03 11:32:02;;;;;;;8.67;7.87;;;21.70;94.90;;;;;;5033020;28;20474;-65
2021/10/03 11:34:31;;;;;;;8.63;7.87;;;21.80;94.90;;;;;;5032073;28;20472;-65
2021/10/03 11:36:59;;;;;;;9.60;8.80;;;21.90;94.70;;;;;;5033133;28;20543;-65
2021/10/03 11:39:41;;;;;;;10.63;8.83;;;21.80;94.00;;;;;;5032719;28;20475;-66
2021/10/03 11:42:12;;;;;;;9.50;8.50;;;22.00;94.00;;;;;;5045063;28;20460;-65
2021/10/03 11:44:40;;;;;;;9.63;8.83;;;22.00;94.00;;;;;;5032555;28;20480;-65
2021/10/03 11:47:10;;;;;;;8.40;7.80;;;22.20;93.90;;;;;;5028975;28;20465;-66
2021/10/03 11:49:41;;;;;;;8.33;7.63;;;22.20;93.80;;;;;;5012674;28;20890;-65
2021/10/03 11:52:09;;;;;;;8.30;7.60;;;22.30;93.80;;;;;;5028797;28;20463;-65
2021/10/03 11:54:43;;;;;;;8.33;7.70;;;22.40;93.70;;;;;;5051915;28;20463;-66
2021/10/03 11:57:20;;;;;;;8.90;8.10;;;22.40;93.60;;;;;;5051954;28;20467;-66
2021/10/03 11:59:48;;;;;;;8.10;7.40;;;22.50;93.50;;;;;;5051423;28;21483;-65
2021/10/03 12:02:17;;;;;;;9.07;8.20;;;22.50;93.50;;;;;;5051634;28;20459;-64
2021/10/03 12:04:55;;;;;;;8.30;7.70;;;22.50;93.50;;;;;;5051362;28;20476;-65
2021/10/03 12:07:22;;;;;;;9.53;8.73;;;22.60;93.50;;;;;;5051723;28;20471;-65
2021/10/03 12:09:59;;;;;;;9.20;8.40;;;22.70;93.50;;;;;;5051339;28;20461;-65
2021/10/03 12:12:47;;;;;;;9.43;8.53;;;22.70;93.40;;;;;;5052041;28;20471;-65
2021/10/03 12:15:35;;;;;;;11.60;10.60;;;22.70;93.20;;;;;;5052240;28;20470;-65
2021/10/03 12:18:02;;;;;;;9.43;8.63;;;22.70;93.00;;;;;;5052563;28;20478;-65
2021/10/03 12:20:48;;;;;;;11.73;9.20;;;22.70;93.00;;;;;;5051949;28;20473;-66
2021/10/03 12:23:15;;;;;;;9.80;8.90;;;22.70;92.90;;;;;;5052101;28;20790;-66
2021/10/03 12:25:43;;;;;;;9.40;8.70;;;22.70;92.70;;;;;;5052403;28;20455;-66
2021/10/03 12:28:12;;;;;;;7.70;7.10;;;22.80;92.60;;;;;;5051827;28;20468;-66
2021/10/03 12:30:46;;;;;;;8.70;8.00;;;22.80;92.60;;;;;;5050938;28;20463;-65
2021/10/03 12:33:13;;;;;;;10.87;7.50;;;22.80;92.70;;;;;;5051985;28;20471;-65
2021/10/03 12:35:40;;;;;;;8.30;7.60;;;22.80;92.60;;;;;;5052258;28;20467;-66
2021/10/03 12:38:07;;;;;;;8.10;7.40;;;22.80;92.40;;;;;;5051308;28;20475;-65
2021/10/03 12:40:34;;;;;;;9.23;8.43;;;22.90;92.70;;;;;;5052095;28;20464;-66